sensor_id;sensor_type;location;lat;lon;timestamp;temperature;humidity
63445;DHT22;49573;47.682;9.170;2024-02-15T00:01:57;7.60;70.60
63445;DHT22;49573;47.682;9.170;2024-02-15T00:04:43;7.50;71.30
63445;DHT22;49573;47.682;9.170;2024-02-15T00:07:31;7.50;71.20
63445;DHT22;49573;47.682;9.170;2024-02-15T00:10:17;7.40;71.40
63445;DHT22;49573;47.682;9.170;2024-02-15T00:13:03;7.30;72.00
63445;DHT22;49573;47.682;9.170;2024-02-15T00:15:52;7.20;72.20
63445;DHT22;49573;47.682;9.170;2024-02-15T00:18:38;7.20;72.20
63445;DHT22;49573;47.682;9.170;2024-02-15T00:21:25;7.10;72.30
63445;DHT22;49573;47.682;9.170;2024-02-15T00:24:13;7.10;72.40
63445;DHT22;49573;47.682;9.170;2024-02-15T00:27:00;7.00;72.70
63445;DHT22;49573;47.682;9.170;2024-02-15T00:29:47;6.90;72.50
63445;DHT22;49573;47.682;9.170;2024-02-15T00:32:33;6.90;72.80
63445;DHT22;49573;47.682;9.170;2024-02-15T00:35:19;6.80;73.10
63445;DHT22;49573;47.682;9.170;2024-02-15T00:38:05;6.80;73.10
63445;DHT22;49573;47.682;9.170;2024-02-15T00:40:54;6.70;73.00
63445;DHT22;49573;47.682;9.170;2024-02-15T00:43:40;6.70;73.10
63445;DHT22;49573;47.682;9.170;2024-02-15T00:46:26;6.70;73.50
63445;DHT22;49573;47.682;9.170;2024-02-15T00:49:14;6.50;74.40
63445;DHT22;49573;47.682;9.170;2024-02-15T00:52:00;6.50;73.90
63445;DHT22;49573;47.682;9.170;2024-02-15T00:54:47;6.50;74.00
63445;DHT22;49573;47.682;9.170;2024-02-15T00:57:34;6.50;73.90
63445;DHT22;49573;47.682;9.170;2024-02-15T01:00:20;6.40;74.10
63445;DHT22;49573;47.682;9.170;2024-02-15T01:03:06;6.40;74.40
63445;DHT22;49573;47.682;9.170;2024-02-15T01:05:52;6.30;74.60
63445;DHT22;49573;47.682;9.170;2024-02-15T01:08:38;6.20;74.70
63445;DHT22;49573;47.682;9.170;2024-02-15T01:11:24;6.20;74.70
63445;DHT22;49573;47.682;9.170;2024-02-15T01:14:13;6.20;74.90
63445;DHT22;49573;47.682;9.170;2024-02-15T01:16:59;6.10;75.00
63445;DHT22;49573;47.682;9.170;2024-02-15T01:19:45;6.10;74.90
63445;DHT22;49573;47.682;9.170;2024-02-15T01:22:31;6.00;75.40
63445;DHT22;49573;47.682;9.170;2024-02-15T01:25:17;5.90;75.50
63445;DHT22;49573;47.682;9.170;2024-02-15T01:28:04;5.90;75.40
63445;DHT22;49573;47.682;9.170;2024-02-15T01:30:51;5.80;75.60
63445;DHT22;49573;47.682;9.170;2024-02-15T01:33:37;5.70;75.70
63445;DHT22;49573;47.682;9.170;2024-02-15T01:36:23;5.70;75.90
63445;DHT22;49573;47.682;9.170;2024-02-15T01:39:10;5.70;76.10
63445;DHT22;49573;47.682;9.170;2024-02-15T01:41:56;5.70;76.20
63445;DHT22;49573;47.682;9.170;2024-02-15T01:44:42;5.70;76.30
63445;DHT22;49573;47.682;9.170;2024-02-15T01:47:31;5.60;76.30
63445;DHT22;49573;47.682;9.170;2024-02-15T01:50:17;5.50;76.60
63445;DHT22;49573;47.682;9.170;2024-02-15T01:53:07;5.50;76.70
63445;DHT22;49573;47.682;9.170;2024-02-15T01:55:54;5.50;76.60
63445;DHT22;49573;47.682;9.170;2024-02-15T01:58:44;5.40;76.40
63445;DHT22;49573;47.682;9.170;2024-02-15T02:01:31;5.40;77.00
63445;DHT22;49573;47.682;9.170;2024-02-15T02:04:19;5.30;76.70
63445;DHT22;49573;47.682;9.170;2024-02-15T02:07:06;5.40;76.20
63445;DHT22;49573;47.682;9.170;2024-02-15T02:09:52;5.30;76.70
63445;DHT22;49573;47.682;9.170;2024-02-15T02:12:38;5.30;76.60
63445;DHT22;49573;47.682;9.170;2024-02-15T02:15:25;5.20;76.50
63445;DHT22;49573;47.682;9.170;2024-02-15T02:18:12;5.20;76.80
63445;DHT22;49573;47.682;9.170;2024-02-15T02:21:00;5.20;76.90
63445;DHT22;49573;47.682;9.170;2024-02-15T02:23:48;5.10;77.10
63445;DHT22;49573;47.682;9.170;2024-02-15T02:26:39;5.10;77.30
63445;DHT22;49573;47.682;9.170;2024-02-15T02:29:25;5.00;77.90
63445;DHT22;49573;47.682;9.170;2024-02-15T02:32:12;5.00;77.90
63445;DHT22;49573;47.682;9.170;2024-02-15T02:34:58;4.80;77.90
63445;DHT22;49573;47.682;9.170;2024-02-15T02:37:44;4.80;78.60
63445;DHT22;49573;47.682;9.170;2024-02-15T02:40:30;4.80;78.20
63445;DHT22;49573;47.682;9.170;2024-02-15T02:43:18;4.80;77.80
63445;DHT22;49573;47.682;9.170;2024-02-15T02:46:04;4.80;77.90
63445;DHT22;49573;47.682;9.170;2024-02-15T02:48:51;4.80;78.00
63445;DHT22;49573;47.682;9.170;2024-02-15T02:51:37;4.80;78.10
63445;DHT22;49573;47.682;9.170;2024-02-15T02:54:23;4.70;77.90
63445;DHT22;49573;47.682;9.170;2024-02-15T02:57:09;4.70;78.00
63445;DHT22;49573;47.682;9.170;2024-02-15T02:59:57;4.60;77.90
63445;DHT22;49573;47.682;9.170;2024-02-15T03:02:43;4.60;78.30
63445;DHT22;49573;47.682;9.170;2024-02-15T03:05:29;4.60;78.40
63445;DHT22;49573;47.682;9.170;2024-02-15T03:08:15;4.50;78.40
63445;DHT22;49573;47.682;9.170;2024-02-15T03:11:03;4.50;78.10
63445;DHT22;49573;47.682;9.170;2024-02-15T03:13:49;4.50;78.00
63445;DHT22;49573;47.682;9.170;2024-02-15T03:16:36;4.40;78.20
63445;DHT22;49573;47.682;9.170;2024-02-15T03:19:23;4.40;78.60
63445;DHT22;49573;47.682;9.170;2024-02-15T03:22:10;4.40;78.30
63445;DHT22;49573;47.682;9.170;2024-02-15T03:24:58;4.30;78.50
63445;DHT22;49573;47.682;9.170;2024-02-15T03:27:44;4.40;78.50
63445;DHT22;49573;47.682;9.170;2024-02-15T03:30:31;4.30;78.90
63445;DHT22;49573;47.682;9.170;2024-02-15T03:33:18;4.30;78.90
63445;DHT22;49573;47.682;9.170;2024-02-15T03:36:06;4.20;79.00
63445;DHT22;49573;47.682;9.170;2024-02-15T03:38:52;4.20;78.90
63445;DHT22;49573;47.682;9.170;2024-02-15T03:41:41;4.20;79.00
63445;DHT22;49573;47.682;9.170;2024-02-15T03:44:27;4.20;79.30
63445;DHT22;49573;47.682;9.170;2024-02-15T03:47:14;4.10;79.60
63445;DHT22;49573;47.682;9.170;2024-02-15T03:50:02;4.10;79.30
63445;DHT22;49573;47.682;9.170;2024-02-15T03:52:48;4.10;79.20
63445;DHT22;49573;47.682;9.170;2024-02-15T03:55:35;4.10;79.30
63445;DHT22;49573;47.682;9.170;2024-02-15T03:58:22;4.00;79.30
63445;DHT22;49573;47.682;9.170;2024-02-15T04:01:08;4.00;79.40
63445;DHT22;49573;47.682;9.170;2024-02-15T04:03:55;3.90;79.40
63445;DHT22;49573;47.682;9.170;2024-02-15T04:06:43;3.90;79.40
63445;DHT22;49573;47.682;9.170;2024-02-15T04:09:29;3.90;79.60
63445;DHT22;49573;47.682;9.170;2024-02-15T04:12:15;3.90;79.50
63445;DHT22;49573;47.682;9.170;2024-02-15T04:15:01;3.80;79.60
63445;DHT22;49573;47.682;9.170;2024-02-15T04:17:51;3.80;79.30
63445;DHT22;49573;47.682;9.170;2024-02-15T04:20:43;3.80;79.30
63445;DHT22;49573;47.682;9.170;2024-02-15T04:23:32;3.80;79.80
63445;DHT22;49573;47.682;9.170;2024-02-15T04:26:18;3.70;79.90
63445;DHT22;49573;47.682;9.170;2024-02-15T04:29:05;3.70;79.60
63445;DHT22;49573;47.682;9.170;2024-02-15T04:31:54;3.70;79.70
63445;DHT22;49573;47.682;9.170;2024-02-15T04:34:40;3.70;80.20
63445;DHT22;49573;47.682;9.170;2024-02-15T04:37:26;3.60;80.10
63445;DHT22;49573;47.682;9.170;2024-02-15T04:40:16;3.60;80.30
63445;DHT22;49573;47.682;9.170;2024-02-15T04:43:04;3.60;80.20
63445;DHT22;49573;47.682;9.170;2024-02-15T04:45:50;3.60;80.30
63445;DHT22;49573;47.682;9.170;2024-02-15T04:48:37;3.60;80.40
63445;DHT22;49573;47.682;9.170;2024-02-15T04:51:23;3.60;80.40
63445;DHT22;49573;47.682;9.170;2024-02-15T04:54:10;3.50;80.20
63445;DHT22;49573;47.682;9.170;2024-02-15T04:57:01;3.50;80.40
63445;DHT22;49573;47.682;9.170;2024-02-15T04:59:47;3.50;80.40
63445;DHT22;49573;47.682;9.170;2024-02-15T05:02:34;3.40;80.70
63445;DHT22;49573;47.682;9.170;2024-02-15T05:05:22;3.40;80.40
63445;DHT22;49573;47.682;9.170;2024-02-15T05:08:10;3.40;80.40
63445;DHT22;49573;47.682;9.170;2024-02-15T05:10:56;3.40;80.40
63445;DHT22;49573;47.682;9.170;2024-02-15T05:13:45;3.30;80.70
63445;DHT22;49573;47.682;9.170;2024-02-15T05:16:31;3.30;80.80
63445;DHT22;49573;47.682;9.170;2024-02-15T05:19:18;3.30;81.00
63445;DHT22;49573;47.682;9.170;2024-02-15T05:22:04;3.30;80.90
63445;DHT22;49573;47.682;9.170;2024-02-15T05:24:52;3.20;80.80
63445;DHT22;49573;47.682;9.170;2024-02-15T05:27:38;3.20;80.80
63445;DHT22;49573;47.682;9.170;2024-02-15T05:30:26;3.10;81.00
63445;DHT22;49573;47.682;9.170;2024-02-15T05:33:12;3.10;81.10
63445;DHT22;49573;47.682;9.170;2024-02-15T05:35:58;3.20;81.40
63445;DHT22;49573;47.682;9.170;2024-02-15T05:38:44;3.10;81.30
63445;DHT22;49573;47.682;9.170;2024-02-15T05:41:31;3.10;81.10
63445;DHT22;49573;47.682;9.170;2024-02-15T05:44:20;3.10;81.70
63445;DHT22;49573;47.682;9.170;2024-02-15T05:47:07;3.00;81.80
63445;DHT22;49573;47.682;9.170;2024-02-15T05:49:53;3.00;81.60
63445;DHT22;49573;47.682;9.170;2024-02-15T05:52:39;3.00;81.60
63445;DHT22;49573;47.682;9.170;2024-02-15T05:55:26;3.00;81.50
63445;DHT22;49573;47.682;9.170;2024-02-15T05:58:12;3.00;81.40
63445;DHT22;49573;47.682;9.170;2024-02-15T06:01:00;3.00;81.60
63445;DHT22;49573;47.682;9.170;2024-02-15T06:03:48;3.00;82.60
63445;DHT22;49573;47.682;9.170;2024-02-15T06:06:34;3.00;82.30
63445;DHT22;49573;47.682;9.170;2024-02-15T06:09:20;2.90;82.20
63445;DHT22;49573;47.682;9.170;2024-02-15T06:12:09;2.90;82.20
63445;DHT22;49573;47.682;9.170;2024-02-15T06:14:55;2.90;82.40
63445;DHT22;49573;47.682;9.170;2024-02-15T06:17:42;2.80;82.10
63445;DHT22;49573;47.682;9.170;2024-02-15T06:20:34;2.80;81.90
63445;DHT22;49573;47.682;9.170;2024-02-15T06:23:21;2.80;82.00
63445;DHT22;49573;47.682;9.170;2024-02-15T06:26:08;2.80;81.90
63445;DHT22;49573;47.682;9.170;2024-02-15T06:28:54;2.70;82.10
63445;DHT22;49573;47.682;9.170;2024-02-15T06:31:58;2.80;82.30
63445;DHT22;49573;47.682;9.170;2024-02-15T06:35:04;2.80;82.00
63445;DHT22;49573;47.682;9.170;2024-02-15T06:38:10;2.70;82.30
63445;DHT22;49573;47.682;9.170;2024-02-15T06:41:14;2.70;82.80
63445;DHT22;49573;47.682;9.170;2024-02-15T06:44:00;2.70;82.40
63445;DHT22;49573;47.682;9.170;2024-02-15T06:46:46;2.70;82.30
63445;DHT22;49573;47.682;9.170;2024-02-15T06:49:32;2.70;82.30
63445;DHT22;49573;47.682;9.170;2024-02-15T06:52:19;2.80;82.30
63445;DHT22;49573;47.682;9.170;2024-02-15T06:55:08;2.80;82.10
63445;DHT22;49573;47.682;9.170;2024-02-15T06:57:54;2.70;82.40
63445;DHT22;49573;47.682;9.170;2024-02-15T07:00:41;2.80;82.20
63445;DHT22;49573;47.682;9.170;2024-02-15T07:03:28;2.80;82.80
63445;DHT22;49573;47.682;9.170;2024-02-15T07:06:15;2.90;82.40
63445;DHT22;49573;47.682;9.170;2024-02-15T07:09:01;2.90;82.50
63445;DHT22;49573;47.682;9.170;2024-02-15T07:11:50;3.00;82.30
63445;DHT22;49573;47.682;9.170;2024-02-15T07:14:36;3.10;81.90
63445;DHT22;49573;47.682;9.170;2024-02-15T07:17:22;3.20;82.10
63445;DHT22;49573;47.682;9.170;2024-02-15T07:20:11;3.30;82.00
63445;DHT22;49573;47.682;9.170;2024-02-15T07:23:00;3.50;81.40
63445;DHT22;49573;47.682;9.170;2024-02-15T07:25:46;3.70;81.40
63445;DHT22;49573;47.682;9.170;2024-02-15T07:28:36;3.90;81.50
63445;DHT22;49573;47.682;9.170;2024-02-15T07:31:22;4.20;81.10
63445;DHT22;49573;47.682;9.170;2024-02-15T07:34:08;4.20;81.30
63445;DHT22;49573;47.682;9.170;2024-02-15T07:36:55;4.20;82.20
63445;DHT22;49573;47.682;9.170;2024-02-15T07:39:41;4.40;82.00
63445;DHT22;49573;47.682;9.170;2024-02-15T07:42:27;4.40;82.00
63445;DHT22;49573;47.682;9.170;2024-02-15T07:45:14;4.50;82.20
63445;DHT22;49573;47.682;9.170;2024-02-15T07:48:00;4.70;81.60
63445;DHT22;49573;47.682;9.170;2024-02-15T07:50:47;4.80;81.90
63445;DHT22;49573;47.682;9.170;2024-02-15T07:53:33;5.00;82.60
63445;DHT22;49573;47.682;9.170;2024-02-15T07:56:19;5.00;82.80
63445;DHT22;49573;47.682;9.170;2024-02-15T07:59:05;5.20;82.40
63445;DHT22;49573;47.682;9.170;2024-02-15T08:01:54;5.40;82.20
63445;DHT22;49573;47.682;9.170;2024-02-15T08:04:40;5.60;81.70
63445;DHT22;49573;47.682;9.170;2024-02-15T08:07:30;5.70;81.70
63445;DHT22;49573;47.682;9.170;2024-02-15T08:10:20;5.80;81.40
63445;DHT22;49573;47.682;9.170;2024-02-15T08:13:06;6.00;81.10
63445;DHT22;49573;47.682;9.170;2024-02-15T08:15:53;6.10;80.70
63445;DHT22;49573;47.682;9.170;2024-02-15T08:18:40;6.30;80.50
63445;DHT22;49573;47.682;9.170;2024-02-15T08:21:27;6.40;79.90
63445;DHT22;49573;47.682;9.170;2024-02-15T08:24:15;6.50;79.60
63445;DHT22;49573;47.682;9.170;2024-02-15T08:27:01;6.70;79.50
63445;DHT22;49573;47.682;9.170;2024-02-15T08:29:47;6.80;79.40
63445;DHT22;49573;47.682;9.170;2024-02-15T08:32:33;7.00;79.30
63445;DHT22;49573;47.682;9.170;2024-02-15T08:35:21;7.20;78.50
63445;DHT22;49573;47.682;9.170;2024-02-15T08:38:07;7.40;78.00
63445;DHT22;49573;47.682;9.170;2024-02-15T08:40:53;7.60;77.80
63445;DHT22;49573;47.682;9.170;2024-02-15T08:43:39;7.80;77.60
63445;DHT22;49573;47.682;9.170;2024-02-15T08:46:27;8.10;77.00
63445;DHT22;49573;47.682;9.170;2024-02-15T08:49:13;8.30;76.20
63445;DHT22;49573;47.682;9.170;2024-02-15T08:52:00;8.50;75.70
63445;DHT22;49573;47.682;9.170;2024-02-15T08:54:46;8.70;75.30
63445;DHT22;49573;47.682;9.170;2024-02-15T08:57:32;8.80;74.80
63445;DHT22;49573;47.682;9.170;2024-02-15T09:00:18;8.90;74.40
63445;DHT22;49573;47.682;9.170;2024-02-15T09:03:05;9.00;72.90
63445;DHT22;49573;47.682;9.170;2024-02-15T09:05:52;9.20;72.30
63445;DHT22;49573;47.682;9.170;2024-02-15T09:08:40;9.30;71.70
63445;DHT22;49573;47.682;9.170;2024-02-15T09:11:28;9.50;71.20
63445;DHT22;49573;47.682;9.170;2024-02-15T09:14:15;9.70;70.50
63445;DHT22;49573;47.682;9.170;2024-02-15T09:17:01;9.80;69.50
63445;DHT22;49573;47.682;9.170;2024-02-15T09:19:52;9.90;69.10
63445;DHT22;49573;47.682;9.170;2024-02-15T09:22:39;10.10;68.30
63445;DHT22;49573;47.682;9.170;2024-02-15T09:25:11;10.20;67.70
63445;DHT22;49573;47.682;9.170;2024-02-15T09:27:58;10.50;67.90
63445;DHT22;49573;47.682;9.170;2024-02-15T09:30:44;10.80;67.10
63445;DHT22;49573;47.682;9.170;2024-02-15T09:33:32;10.90;65.70
63445;DHT22;49573;47.682;9.170;2024-02-15T09:36:18;11.20;65.80
63445;DHT22;49573;47.682;9.170;2024-02-15T09:39:04;11.40;64.90
63445;DHT22;49573;47.682;9.170;2024-02-15T09:41:53;11.40;63.40
63445;DHT22;49573;47.682;9.170;2024-02-15T09:44:44;11.50;63.20
63445;DHT22;49573;47.682;9.170;2024-02-15T09:47:35;11.80;63.30
63445;DHT22;49573;47.682;9.170;2024-02-15T09:50:22;11.80;62.40
63445;DHT22;49573;47.682;9.170;2024-02-15T09:53:11;12.20;62.20
63445;DHT22;49573;47.682;9.170;2024-02-15T09:55:59;12.40;62.30
63445;DHT22;49573;47.682;9.170;2024-02-15T09:58:51;12.50;61.80
63445;DHT22;49573;47.682;9.170;2024-02-15T10:01:38;12.50;60.50
63445;DHT22;49573;47.682;9.170;2024-02-15T10:04:26;12.60;61.40
63445;DHT22;49573;47.682;9.170;2024-02-15T10:07:12;12.40;60.20
63445;DHT22;49573;47.682;9.170;2024-02-15T10:10:14;12.30;60.80
63445;DHT22;49573;47.682;9.170;2024-02-15T10:13:02;12.40;60.80
63445;DHT22;49573;47.682;9.170;2024-02-15T10:15:49;12.70;60.10
63445;DHT22;49573;47.682;9.170;2024-02-15T10:18:36;12.90;59.40
63445;DHT22;49573;47.682;9.170;2024-02-15T10:21:25;12.50;60.00
63445;DHT22;49573;47.682;9.170;2024-02-15T10:24:12;12.50;59.60
63445;DHT22;49573;47.682;9.170;2024-02-15T10:27:01;12.60;60.30
63445;DHT22;49573;47.682;9.170;2024-02-15T10:29:50;12.50;60.60
63445;DHT22;49573;47.682;9.170;2024-02-15T10:32:37;12.60;60.50
63445;DHT22;49573;47.682;9.170;2024-02-15T10:35:23;12.60;60.70
63445;DHT22;49573;47.682;9.170;2024-02-15T10:38:10;12.80;60.30
63445;DHT22;49573;47.682;9.170;2024-02-15T10:41:02;12.80;59.10
63445;DHT22;49573;47.682;9.170;2024-02-15T10:43:50;12.50;59.50
63445;DHT22;49573;47.682;9.170;2024-02-15T10:46:37;12.30;59.60
63445;DHT22;49573;47.682;9.170;2024-02-15T10:49:25;12.20;59.90
63445;DHT22;49573;47.682;9.170;2024-02-15T10:52:12;12.20;60.20
63445;DHT22;49573;47.682;9.170;2024-02-15T10:55:04;12.20;60.20
63445;DHT22;49573;47.682;9.170;2024-02-15T10:57:51;12.50;60.20
63445;DHT22;49573;47.682;9.170;2024-02-15T11:00:39;12.30;59.90
63445;DHT22;49573;47.682;9.170;2024-02-15T11:03:33;12.20;60.20
63445;DHT22;49573;47.682;9.170;2024-02-15T11:06:24;12.80;59.90
63445;DHT22;49573;47.682;9.170;2024-02-15T11:09:12;13.10;58.20
63445;DHT22;49573;47.682;9.170;2024-02-15T11:11:59;13.30;57.80
63445;DHT22;49573;47.682;9.170;2024-02-15T11:14:46;13.50;57.90
63445;DHT22;49573;47.682;9.170;2024-02-15T11:17:47;13.70;58.10
63445;DHT22;49573;47.682;9.170;2024-02-15T11:20:48;14.10;56.90
63445;DHT22;49573;47.682;9.170;2024-02-15T11:23:36;14.70;55.80
63445;DHT22;49573;47.682;9.170;2024-02-15T11:26:43;14.80;53.00
63445;DHT22;49573;47.682;9.170;2024-02-15T11:29:48;14.70;54.20
63445;DHT22;49573;47.682;9.170;2024-02-15T11:32:39;14.90;54.20
63445;DHT22;49573;47.682;9.170;2024-02-15T11:35:26;15.20;53.20
63445;DHT22;49573;47.682;9.170;2024-02-15T11:38:28;15.60;52.80
63445;DHT22;49573;47.682;9.170;2024-02-15T11:41:19;15.60;51.40
63445;DHT22;49573;47.682;9.170;2024-02-15T11:44:06;15.60;52.10
63445;DHT22;49573;47.682;9.170;2024-02-15T11:46:52;15.50;52.80
63445;DHT22;49573;47.682;9.170;2024-02-15T11:49:41;15.90;51.60
63445;DHT22;49573;47.682;9.170;2024-02-15T11:52:27;15.80;51.70
63445;DHT22;49573;47.682;9.170;2024-02-15T11:55:14;16.10;51.00
63445;DHT22;49573;47.682;9.170;2024-02-15T11:58:02;16.30;50.20
63445;DHT22;49573;47.682;9.170;2024-02-15T12:00:50;16.10;50.90
63445;DHT22;49573;47.682;9.170;2024-02-15T12:03:55;16.70;51.30
63445;DHT22;49573;47.682;9.170;2024-02-15T12:07:00;16.90;49.60
63445;DHT22;49573;47.682;9.170;2024-02-15T12:10:05;16.60;48.60
63445;DHT22;49573;47.682;9.170;2024-02-15T12:13:17;16.40;48.80
63445;DHT22;49573;47.682;9.170;2024-02-15T12:16:22;17.30;49.20
63445;DHT22;49573;47.682;9.170;2024-02-15T12:19:26;17.80;46.10
63445;DHT22;49573;47.682;9.170;2024-02-15T12:22:12;18.30;47.10
63445;DHT22;49573;47.682;9.170;2024-02-15T12:25:00;19.10;45.10
63445;DHT22;49573;47.682;9.170;2024-02-15T12:27:46;19.20;46.40
63445;DHT22;49573;47.682;9.170;2024-02-15T12:30:34;20.60;46.10
63445;DHT22;49573;47.682;9.170;2024-02-15T12:33:25;21.20;41.00
63445;DHT22;49573;47.682;9.170;2024-02-15T12:36:13;20.90;42.70
63445;DHT22;49573;47.682;9.170;2024-02-15T12:39:00;20.60;41.70
63445;DHT22;49573;47.682;9.170;2024-02-15T12:41:48;20.20;42.40
63445;DHT22;49573;47.682;9.170;2024-02-15T12:44:36;20.60;43.50
63445;DHT22;49573;47.682;9.170;2024-02-15T12:47:23;21.10;40.70
63445;DHT22;49573;47.682;9.170;2024-02-15T12:50:14;20.90;41.20
63445;DHT22;49573;47.682;9.170;2024-02-15T12:53:00;22.00;40.10
63445;DHT22;49573;47.682;9.170;2024-02-15T12:55:53;22.50;38.70
63445;DHT22;49573;47.682;9.170;2024-02-15T12:58:40;23.10;37.10
63445;DHT22;49573;47.682;9.170;2024-02-15T13:01:26;23.10;37.20
63445;DHT22;49573;47.682;9.170;2024-02-15T13:04:23;23.40;37.60
63445;DHT22;49573;47.682;9.170;2024-02-15T13:07:09;24.20;36.60
63445;DHT22;49573;47.682;9.170;2024-02-15T13:09:55;24.50;37.60
63445;DHT22;49573;47.682;9.170;2024-02-15T13:12:42;25.60;36.30
63445;DHT22;49573;47.682;9.170;2024-02-15T13:15:30;25.40;34.50
63445;DHT22;49573;47.682;9.170;2024-02-15T13:18:19;25.00;35.00
63445;DHT22;49573;47.682;9.170;2024-02-15T13:21:06;25.80;34.90
63445;DHT22;49573;47.682;9.170;2024-02-15T13:23:52;25.80;33.40
63445;DHT22;49573;47.682;9.170;2024-02-15T13:26:38;25.70;33.60
63445;DHT22;49573;47.682;9.170;2024-02-15T13:29:26;25.40;34.30
63445;DHT22;49573;47.682;9.170;2024-02-15T13:32:12;24.80;33.70
63445;DHT22;49573;47.682;9.170;2024-02-15T13:34:58;24.80;33.40
63445;DHT22;49573;47.682;9.170;2024-02-15T13:37:49;25.40;34.50
63445;DHT22;49573;47.682;9.170;2024-02-15T13:40:35;24.60;33.80
63445;DHT22;49573;47.682;9.170;2024-02-15T13:43:21;25.30;34.60
63445;DHT22;49573;47.682;9.170;2024-02-15T13:46:07;25.70;33.70
63445;DHT22;49573;47.682;9.170;2024-02-15T13:48:53;25.70;33.60
63445;DHT22;49573;47.682;9.170;2024-02-15T13:51:39;25.50;33.30
63445;DHT22;49573;47.682;9.170;2024-02-15T13:54:27;25.70;33.40
63445;DHT22;49573;47.682;9.170;2024-02-15T13:57:14;25.40;34.60
63445;DHT22;49573;47.682;9.170;2024-02-15T14:00:03;25.80;33.30
63445;DHT22;49573;47.682;9.170;2024-02-15T14:02:52;25.70;33.30
63445;DHT22;49573;47.682;9.170;2024-02-15T14:05:39;25.50;33.40
63445;DHT22;49573;47.682;9.170;2024-02-15T14:08:27;25.30;33.40
63445;DHT22;49573;47.682;9.170;2024-02-15T14:11:14;25.30;33.50
63445;DHT22;49573;47.682;9.170;2024-02-15T14:14:00;25.20;33.30
63445;DHT22;49573;47.682;9.170;2024-02-15T14:16:46;24.90;33.70
63445;DHT22;49573;47.682;9.170;2024-02-15T14:19:33;24.30;33.80
63445;DHT22;49573;47.682;9.170;2024-02-15T14:22:19;24.20;33.80
63445;DHT22;49573;47.682;9.170;2024-02-15T14:25:09;24.30;34.40
63445;DHT22;49573;47.682;9.170;2024-02-15T14:27:57;23.80;35.00
63445;DHT22;49573;47.682;9.170;2024-02-15T14:30:43;23.70;35.10
63445;DHT22;49573;47.682;9.170;2024-02-15T14:33:48;23.20;35.20
63445;DHT22;49573;47.682;9.170;2024-02-15T14:36:36;22.70;36.20
63445;DHT22;49573;47.682;9.170;2024-02-15T14:39:22;22.20;36.40
63445;DHT22;49573;47.682;9.170;2024-02-15T14:42:08;21.70;37.00
63445;DHT22;49573;47.682;9.170;2024-02-15T14:44:59;21.30;37.70
63445;DHT22;49573;47.682;9.170;2024-02-15T14:47:46;20.80;38.40
63445;DHT22;49573;47.682;9.170;2024-02-15T14:50:32;20.50;38.90
63445;DHT22;49573;47.682;9.170;2024-02-15T14:53:19;20.10;39.10
63445;DHT22;49573;47.682;9.170;2024-02-15T14:56:05;19.50;39.90
63445;DHT22;49573;47.682;9.170;2024-02-15T14:58:52;19.40;40.10
63445;DHT22;49573;47.682;9.170;2024-02-15T15:01:39;19.00;40.80
63445;DHT22;49573;47.682;9.170;2024-02-15T15:04:26;18.80;41.70
63445;DHT22;49573;47.682;9.170;2024-02-15T15:07:20;18.60;43.10
63445;DHT22;49573;47.682;9.170;2024-02-15T15:10:39;18.40;43.00
63445;DHT22;49573;47.682;9.170;2024-02-15T15:13:43;18.20;43.30
63445;DHT22;49573;47.682;9.170;2024-02-15T15:16:29;18.00;44.20
63445;DHT22;49573;47.682;9.170;2024-02-15T15:19:18;17.90;43.80
63445;DHT22;49573;47.682;9.170;2024-02-15T15:22:04;17.80;44.00
63445;DHT22;49573;47.682;9.170;2024-02-15T15:24:50;17.60;44.20
63445;DHT22;49573;47.682;9.170;2024-02-15T15:27:36;17.50;44.30
63445;DHT22;49573;47.682;9.170;2024-02-15T15:30:23;17.30;45.30
63445;DHT22;49573;47.682;9.170;2024-02-15T15:33:09;17.20;45.50
63445;DHT22;49573;47.682;9.170;2024-02-15T15:35:56;17.00;44.80
63445;DHT22;49573;47.682;9.170;2024-02-15T15:38:42;16.90;44.60
63445;DHT22;49573;47.682;9.170;2024-02-15T15:41:28;16.50;44.60
63445;DHT22;49573;47.682;9.170;2024-02-15T15:44:14;16.50;45.20
63445;DHT22;49573;47.682;9.170;2024-02-15T15:47:00;16.30;45.20
63445;DHT22;49573;47.682;9.170;2024-02-15T15:49:46;16.20;45.90
63445;DHT22;49573;47.682;9.170;2024-02-15T15:52:33;16.20;48.50
63445;DHT22;49573;47.682;9.170;2024-02-15T15:55:20;16.00;49.00
63445;DHT22;49573;47.682;9.170;2024-02-15T15:58:06;15.90;49.50
63445;DHT22;49573;47.682;9.170;2024-02-15T16:00:52;15.80;50.00
63445;DHT22;49573;47.682;9.170;2024-02-15T16:03:38;15.70;50.30
63445;DHT22;49573;47.682;9.170;2024-02-15T16:06:25;15.60;50.80
63445;DHT22;49573;47.682;9.170;2024-02-15T16:09:13;15.50;51.00
63445;DHT22;49573;47.682;9.170;2024-02-15T16:11:59;15.30;51.30
63445;DHT22;49573;47.682;9.170;2024-02-15T16:14:45;15.30;51.80
63445;DHT22;49573;47.682;9.170;2024-02-15T16:17:33;15.10;51.50
63445;DHT22;49573;47.682;9.170;2024-02-15T16:20:21;15.00;51.70
63445;DHT22;49573;47.682;9.170;2024-02-15T16:23:07;14.90;52.50
63445;DHT22;49573;47.682;9.170;2024-02-15T16:25:54;14.70;52.90
63445;DHT22;49573;47.682;9.170;2024-02-15T16:28:40;14.70;52.70
63445;DHT22;49573;47.682;9.170;2024-02-15T16:31:26;14.50;53.20
63445;DHT22;49573;47.682;9.170;2024-02-15T16:34:13;14.40;53.70
63445;DHT22;49573;47.682;9.170;2024-02-15T16:37:00;14.30;53.10
63445;DHT22;49573;47.682;9.170;2024-02-15T16:39:46;14.30;53.20
63445;DHT22;49573;47.682;9.170;2024-02-15T16:42:33;14.10;53.20
63445;DHT22;49573;47.682;9.170;2024-02-15T16:45:19;14.00;53.70
63445;DHT22;49573;47.682;9.170;2024-02-15T16:48:06;14.00;54.20
63445;DHT22;49573;47.682;9.170;2024-02-15T16:50:52;13.80;55.20
63445;DHT22;49573;47.682;9.170;2024-02-15T16:53:38;13.70;55.50
63445;DHT22;49573;47.682;9.170;2024-02-15T16:56:25;13.70;56.20
63445;DHT22;49573;47.682;9.170;2024-02-15T16:59:13;13.50;56.80
63445;DHT22;49573;47.682;9.170;2024-02-15T17:01:59;13.50;56.90
63445;DHT22;49573;47.682;9.170;2024-02-15T17:04:46;13.40;57.90
63445;DHT22;49573;47.682;9.170;2024-02-15T17:07:32;13.30;57.80
63445;DHT22;49573;47.682;9.170;2024-02-15T17:10:18;13.20;57.70
63445;DHT22;49573;47.682;9.170;2024-02-15T17:13:04;13.10;57.60
63445;DHT22;49573;47.682;9.170;2024-02-15T17:15:53;13.10;58.20
63445;DHT22;49573;47.682;9.170;2024-02-15T17:18:39;13.00;58.20
63445;DHT22;49573;47.682;9.170;2024-02-15T17:21:26;12.90;57.90
63445;DHT22;49573;47.682;9.170;2024-02-15T17:24:13;12.80;58.40
63445;DHT22;49573;47.682;9.170;2024-02-15T17:27:00;12.70;58.60
63445;DHT22;49573;47.682;9.170;2024-02-15T17:29:46;12.60;58.60
63445;DHT22;49573;47.682;9.170;2024-02-15T17:32:34;12.50;58.90
63445;DHT22;49573;47.682;9.170;2024-02-15T17:35:20;12.50;58.60
63445;DHT22;49573;47.682;9.170;2024-02-15T17:38:06;12.40;58.50
63445;DHT22;49573;47.682;9.170;2024-02-15T17:40:53;12.30;58.80
63445;DHT22;49573;47.682;9.170;2024-02-15T17:43:39;12.30;58.00
63445;DHT22;49573;47.682;9.170;2024-02-15T17:46:26;12.20;58.70
63445;DHT22;49573;47.682;9.170;2024-02-15T17:49:14;12.00;59.00
63445;DHT22;49573;47.682;9.170;2024-02-15T17:52:00;12.00;59.80